Time Latitude Longitude Accuracy (66% radius in meters) Altitude (meters) Speed (km/hour) Bearing (degrees) Battery (%) GPS flag
12:03:10 57.203209 60.114315 10 314.99983302531 1.0569257736206 99.370887756348 1 1 delete
12:03:03 57.203257 60.114171 10 308.99982407428 0.7668359875679 118.29165649414 1 1 delete
12:02:57 57.203333 60.114077 10 313.99969172909 1.1764347553253 176.1882019043 1 1 delete
12:02:43 57.203423 60.114135 10 314.0000375035 0.044331856071949 230.83477783203 1 1 delete
12:02:37 57.203490 60.114254 10 306.99968356589 2.1816227436066 221.58102416992 1 1 delete
12:02:34 57.203556 60.114401 10 306.99957749055 2.0033481121063 223.69178771973 1 1 delete
12:02:27 57.203659 60.114692 10 304.99972552029 1.1652829647064 232.56106567383 1 1 delete
12:02:19 57.203758 60.114747 10 303.99970607192 0.86873126029968 171.27874755859 1 1 delete
12:02:14 57.203856 60.114665 10 312.99942069739 1.140976190567 155.2938079834 1 1 delete
12:02:10 57.203951 60.114570 10 306.99936687967 1.0369390249252 165.25915527344 1 1 delete
12:01:57 57.204038 60.114456 10 298.9998928747 0.98395901918411 132.89505004883 12 1 delete
12:01:47 57.204077 60.114294 10 297.99981423818 1.165486574173 145.69918823242 12 1 delete
12:01:41 57.204165 60.114256 10 303.99991705627 0.77831423282623 138.33424377441 12 1 delete
12:01:34 57.204246 60.114150 10 293.99985361429 1.358016371727 140.07911682129 12 1 delete
12:01:28 57.204343 60.114129 10 295.99958738866 1.1190620660782 164.19371032715 12 1 delete
12:01:23 57.204450 60.114193 10 294.99949032975 1.5391750335693 220.37153625488 12 1 delete
12:01:19 57.204555 60.114283 10 291.9993891788 0.99322938919067 213.21751403809 12 1 delete
12:01:15 57.204663 60.114334 10 295.99949394119 0.98761558532715 196.74230957031 12 1 delete
12:01:11 57.204773 60.114323 10 298.99968458097 1.0047525167465 188.1016998291 12 1 delete
12:01:02 57.204874 60.114388 10 296.99982748387 1.4187878370285 230.42744445801 12 1 delete
12:00:51 57.204958 60.114463 10 295.99971070011 1.2334978580475 193.52978515625 12 1 delete
12:00:46 57.205066 60.114495 10 295.99982250562 1.2828071117401 205.69737243652 12 1 delete
12:00:40 57.205156 60.114513 10 296.99993261342 2.6786777973175 211.49113464355 12 1 delete
12:00:30 57.205237 60.115064 10 288.99998612719 2.2383043766022 256.34378051758 12 1 delete
12:00:25 57.205296 60.115223 10 291.99990110952 2.0012259483337 168.13610839844 12 1 delete
12:00:21 57.205382 60.115171 10 292.99990405215 2.0817382335663 138.60409545898 12 1 delete
12:00:16 57.205485 60.115124 10 295.99996175996 1.9524222612381 180.99209594727 12 1 delete
12:00:11 57.205577 60.115133 10 294.99996603561 2.1773355007172 178.29179382324 12 1 delete
12:00:00 57.205841 60.115157 10 297.99986425906 2.8200535774231 208.14033508301 12 1 delete
11:59:39 57.206424 60.116073 10 317.99981585169 0.85479468107224 207.39471435547 12 1 delete
11:59:36 57.206519 60.116157 10 316.9998148019 0.55590319633484 208.24708557129 12 1 delete
11:59:00 57.206697 60.116153 10 316.99993166656 0.8829864859581 158.53117370605 12 1 delete
11:58:50 57.206895 60.116097 10 306.99988864049 1.0874993801117 198.3257598877 12 1 delete
11:58:43 57.206977 60.115994 10 313.99990596301 2.0251488685608 8.7881278991699 12 1 delete
11:58:17 57.206892 60.115685 10 279.99998972383 1.1787750720978 156.74440002441 12 1 delete
11:58:11 57.206982 60.115599 10 286.99988805551 1.3698822259903 156.74440002441 12 1 delete
11:58:08 57.207074 60.115506 10 287.99991077891 1.3028818368912 126.2214050293 12 1 delete
11:58:00 57.207273 60.115393 10 287.99997594515 1.0604938268661 166.74505615234 12 1 delete
11:57:29 57.207330 60.115077 10 281.99999999837 0.20665341615677 131.73799133301 12 1 delete
11:57:05 57.207635 60.115267 10 296.99985833175 2.2006788253784 196.97663879395 12 1 delete
11:57:02 57.207697 60.115396 10 305.99976081523 2.1799066066742 226.9655456543 12 1 delete
11:56:59 57.207721 60.115583 15 308.99978570491 1.9106903076172 266.08261108398 12 1 delete
11:56:46 57.207729 60.116133 10 308.99959000947 1.0177198648453 229.59689331055 12 1 delete
11:56:43 57.207822 60.116254 10 305.99919772967 1.9333392381668 206.77941894531 12 1 delete
11:56:33 57.208081 60.116521 10 311.99974733087 1.1887007951736 212.4419708252 12 1 delete
11:56:26 57.208181 60.116565 10 303.99975746842 0.99060153961182 136.24966430664 12 1 delete
11:56:22 57.208279 60.116552 15 302.99942750081 1.2192450761795 182.40925598145 12 1 delete
11:56:02 57.208568 60.116667 10 292.9998704365 0.8788560628891 178.35624694824 12 1 delete
11:55:57 57.208657 60.116768 10 294.99981011871 1.2876654863358 221.42277526855 12 1 delete
11:55:52 57.208686 60.116963 10 296.99995750795 0.13518887758255 304.22680664062 12 1 delete